Airport View

Enter AWOS ICAO identifier for current METAR.

ex. KFNL

KSMO 112051Z 22005KT 10SM CLR 16/09 A3016 RMK AO2 SLP213 T01610094 58015

11 Dec 2019 21:53

Phone: 310-392-6453

Other Area AWOS: KLAX - KHHR - KCQT - KVNY

TAF KSMO 111748Z 1118/1218 VRB03KT P6SM SCT250 FM112100 23008KT P6SM SCT250 FM120300 VRB03KT P6SM BKN250